createdAt,value
2022-12-14T00:03:02.857Z,7.60
2022-12-14T00:08:06.254Z,8.10
2022-12-14T00:13:12.813Z,11.00
2022-12-14T00:18:18.056Z,12.10
2022-12-14T00:23:25.070Z,9.60
2022-12-14T00:28:28.265Z,9.20
2022-12-14T00:33:34.433Z,10.00
2022-12-14T00:38:38.306Z,12.50
2022-12-14T00:43:41.350Z,9.30
2022-12-14T00:48:44.338Z,9.40
2022-12-14T00:53:47.097Z,8.20
2022-12-14T00:58:51.854Z,10.00
2022-12-14T01:04:14.606Z,13.10
2022-12-14T01:09:19.586Z,10.30
2022-12-14T01:14:22.805Z,9.90
2022-12-14T01:19:25.750Z,9.40
2022-12-14T01:24:28.543Z,8.90
2022-12-14T01:29:31.453Z,11.20
2022-12-14T01:34:34.307Z,12.30
2022-12-14T01:39:37.182Z,9.50
2022-12-14T01:44:39.955Z,9.50
2022-12-14T01:50:08.647Z,9.80
2022-12-14T01:55:33.686Z,9.10
2022-12-14T02:00:37.345Z,13.70
2022-12-14T02:05:44.960Z,15.60
2022-12-14T02:10:50.457Z,11.90
2022-12-14T02:15:54.095Z,12.40
2022-12-14T02:21:20.949Z,11.70
2022-12-14T02:26:49.112Z,10.90
2022-12-14T02:32:20.772Z,9.90
2022-12-14T02:37:38.569Z,8.60
2022-12-14T02:42:52.090Z,7.80
2022-12-14T02:48:35.659Z,8.10
2022-12-14T02:54:04.480Z,11.40
2022-12-14T02:59:09.499Z,8.90
2022-12-14T03:04:12.315Z,9.60
2022-12-14T03:09:18.627Z,8.00
2022-12-14T03:14:50.634Z,11.20
2022-12-14T03:19:56.274Z,8.90
2022-12-14T03:25:05.972Z,8.70
2022-12-14T03:30:23.776Z,10.10
2022-12-14T03:35:46.243Z,9.90
2022-12-14T03:40:59.890Z,11.40
2022-12-14T03:46:30.662Z,10.30
2022-12-14T03:51:52.132Z,10.80
2022-12-14T03:57:03.577Z,8.70
2022-12-14T04:02:27.874Z,10.00
2022-12-14T04:07:30.923Z,11.90
2022-12-14T04:12:59.095Z,9.60
2022-12-14T04:18:25.903Z,10.20
2022-12-14T04:23:52.947Z,8.60
2022-12-14T04:29:28.123Z,15.10
2022-12-14T04:34:34.235Z,10.90
2022-12-14T04:39:50.761Z,9.90
2022-12-14T04:44:58.949Z,9.50
2022-12-14T04:50:15.546Z,9.40
2022-12-14T04:55:27.787Z,10.40
2022-12-14T05:00:36.031Z,11.80
2022-12-14T05:05:56.745Z,10.20
2022-12-14T05:11:50.106Z,8.60
2022-12-14T05:16:41.592Z,8.60
2022-12-14T05:21:47.649Z,11.10
2022-12-14T05:26:50.504Z,11.60
2022-12-14T05:31:53.544Z,7.50
2022-12-14T05:36:56.880Z,10.10
2022-12-14T05:41:59.746Z,11.60
2022-12-14T05:47:02.581Z,14.50
2022-12-14T05:52:05.800Z,13.00
2022-12-14T05:57:08.643Z,9.80
2022-12-14T06:02:12.031Z,9.10
2022-12-14T06:07:14.995Z,9.20
2022-12-14T06:12:18.086Z,9.30
2022-12-14T06:17:21.008Z,10.40
2022-12-14T06:22:28.121Z,10.50
2022-12-14T06:27:30.935Z,10.00
2022-12-14T06:32:33.774Z,8.80
2022-12-14T06:37:41.343Z,8.60
2022-12-14T06:42:47.089Z,10.10
2022-12-14T06:47:50.367Z,9.50
2022-12-14T06:52:53.321Z,10.10
2022-12-14T06:57:56.788Z,12.70
2022-12-14T07:03:00.048Z,11.80
2022-12-14T07:08:06.263Z,11.30
2022-12-14T07:13:10.308Z,10.40
2022-12-14T07:18:14.038Z,14.40
2022-12-14T07:23:17.540Z,13.90
2022-12-14T07:28:21.016Z,15.00
2022-12-14T07:33:25.174Z,23.70
2022-12-14T07:38:31.272Z,20.70
2022-12-14T07:43:34.452Z,17.00
2022-12-14T07:48:37.806Z,13.60
2022-12-14T07:53:41.438Z,13.60
2022-12-14T07:58:45.087Z,18.60
2022-12-14T08:03:53.586Z,15.90
2022-12-14T08:08:57.781Z,14.10
2022-12-14T08:14:04.659Z,13.60
2022-12-14T08:19:07.634Z,12.90
2022-12-14T08:24:12.748Z,14.60
2022-12-14T08:29:15.779Z,14.90
2022-12-14T08:34:23.018Z,14.90
2022-12-14T08:39:25.888Z,16.60
2022-12-14T08:44:28.674Z,9.10
2022-12-14T08:49:32.568Z,9.10
2022-12-14T08:54:37.646Z,9.70
2022-12-14T09:00:00.662Z,11.10
2022-12-14T09:05:04.423Z,12.50
2022-12-14T09:10:08.091Z,11.70
2022-12-14T09:15:12.147Z,10.30
2022-12-14T09:20:15.188Z,14.90
2022-12-14T09:25:18.191Z,12.20
2022-12-14T09:30:26.405Z,10.00
2022-12-14T09:35:30.558Z,14.00
2022-12-14T09:40:34.219Z,10.90
2022-12-14T09:45:50.658Z,14.50
2022-12-14T09:50:54.293Z,12.60
2022-12-14T09:55:59.715Z,12.80
2022-12-14T10:01:22.331Z,13.40
2022-12-14T10:06:25.297Z,15.60
2022-12-14T10:11:57.731Z,15.90
2022-12-14T10:17:31.981Z,9.40
2022-12-14T10:22:42.455Z,13.70
2022-12-14T10:28:16.823Z,7.80
2022-12-14T10:33:19.645Z,13.00
2022-12-14T10:38:39.802Z,11.30
2022-12-14T10:43:55.748Z,14.70
2022-12-14T10:49:06.871Z,14.60
2022-12-14T10:54:15.569Z,16.20
2022-12-14T10:59:18.572Z,15.10
2022-12-14T11:04:30.691Z,17.00
2022-12-14T11:09:34.312Z,17.30
2022-12-14T11:14:37.696Z,17.70
2022-12-14T11:19:41.370Z,16.70
2022-12-14T11:24:47.424Z,18.90
2022-12-14T11:29:51.440Z,17.00
2022-12-14T11:34:57.785Z,20.00
2022-12-14T11:40:06.634Z,22.50
2022-12-14T11:45:32.864Z,25.20
2022-12-14T11:50:36.525Z,20.80
2022-12-14T11:55:47.455Z,22.80
2022-12-14T12:01:05.464Z,40.10
2022-12-14T12:06:16.739Z,30.80
2022-12-14T12:11:37.118Z,25.60
2022-12-14T12:16:44.949Z,29.00
2022-12-14T12:21:48.316Z,27.50
2022-12-14T12:26:56.127Z,21.20
2022-12-14T12:32:25.435Z,21.30
2022-12-14T12:37:33.025Z,20.30
2022-12-14T12:42:49.531Z,20.80
2022-12-14T12:48:18.716Z,21.70
2022-12-14T12:53:40.372Z,20.90
2022-12-14T12:58:52.164Z,24.00
2022-12-14T13:04:02.141Z,18.60
2022-12-14T13:09:25.995Z,20.80
2022-12-14T13:14:35.358Z,22.20
2022-12-14T13:19:50.164Z,24.60
2022-12-14T13:24:59.766Z,20.60
2022-12-14T13:30:39.839Z,20.30
2022-12-14T13:35:52.248Z,20.90
2022-12-14T13:41:39.714Z,28.30
2022-12-14T13:46:43.570Z,24.60
2022-12-14T13:51:51.821Z,24.10
2022-12-14T13:57:09.295Z,27.40
2022-12-14T14:02:32.401Z,29.40
2022-12-14T14:07:48.875Z,27.10
2022-12-14T14:12:53.828Z,25.50
2022-12-14T14:18:06.477Z,28.60
2022-12-14T14:23:18.295Z,28.90
2022-12-14T14:28:28.200Z,29.20
2022-12-14T14:33:55.193Z,32.60
2022-12-14T14:38:59.606Z,34.80
2022-12-14T14:44:20.609Z,40.00
2022-12-14T14:49:38.666Z,45.00
2022-12-14T14:55:27.813Z,91.30
2022-12-14T15:00:12.647Z,67.10
2022-12-14T15:10:46.172Z,39.90
2022-12-14T15:15:55.018Z,38.50
2022-12-14T15:21:12.174Z,41.40
2022-12-14T15:26:28.977Z,39.80
2022-12-14T15:31:42.054Z,49.00
2022-12-14T15:36:46.081Z,47.90
2022-12-14T15:41:49.417Z,39.20
2022-12-14T15:46:55.393Z,38.00
2022-12-14T15:51:59.413Z,47.90
2022-12-14T15:57:02.347Z,45.80
2022-12-14T16:02:22.196Z,44.20
2022-12-14T16:07:47.950Z,43.50
2022-12-14T16:12:58.708Z,36.80
2022-12-14T16:18:03.406Z,33.80
2022-12-14T16:23:15.771Z,31.80
2022-12-14T16:28:21.460Z,35.60
2022-12-14T16:33:25.751Z,33.60
2022-12-14T16:38:29.682Z,39.00
2022-12-14T16:43:32.955Z,33.90
2022-12-14T16:49:06.635Z,36.80
2022-12-14T16:54:36.736Z,36.50
2022-12-14T16:59:46.679Z,37.30
2022-12-14T17:04:49.756Z,39.80
2022-12-14T17:15:25.290Z,39.10
2022-12-14T17:20:37.093Z,48.80
2022-12-14T17:25:44.688Z,55.20
2022-12-14T17:30:54.345Z,44.80
2022-12-14T17:35:57.292Z,42.80
2022-12-14T17:41:00.426Z,39.00
2022-12-14T17:46:03.939Z,41.60
2022-12-14T17:51:06.942Z,39.30
2022-12-14T17:56:09.962Z,38.00
2022-12-14T18:01:23.556Z,40.90
2022-12-14T18:06:26.575Z,39.90
2022-12-14T18:11:29.683Z,42.10
2022-12-14T18:16:33.369Z,47.00
2022-12-14T18:21:36.300Z,36.30
2022-12-14T18:26:39.220Z,31.80
2022-12-14T18:31:42.407Z,35.80
2022-12-14T18:36:45.321Z,38.10
2022-12-14T18:41:48.960Z,69.10
2022-12-14T18:46:51.834Z,52.60
2022-12-14T18:51:54.745Z,31.70
2022-12-14T18:56:57.841Z,46.00
2022-12-14T19:02:02.254Z,31.80
2022-12-14T19:07:05.123Z,37.10
2022-12-14T19:12:08.774Z,31.80
2022-12-14T19:17:11.718Z,27.10
2022-12-14T19:22:14.570Z,32.30
2022-12-14T19:27:36.374Z,29.80
2022-12-14T19:32:41.035Z,40.50
2022-12-14T19:37:44.031Z,42.20
2022-12-14T19:42:48.529Z,34.40
2022-12-14T19:47:51.441Z,45.60
2022-12-14T19:52:55.040Z,27.10
2022-12-14T19:57:58.015Z,31.90
2022-12-14T20:03:01.123Z,36.10
2022-12-14T20:08:04.614Z,30.10
2022-12-14T20:13:07.611Z,35.50
2022-12-14T20:18:12.829Z,49.50
2022-12-14T20:23:24.590Z,29.00
2022-12-14T20:28:27.609Z,34.50
2022-12-14T20:33:31.422Z,44.20
2022-12-14T20:38:36.021Z,30.00
2022-12-14T20:43:44.824Z,29.00
2022-12-14T20:48:47.813Z,26.80
2022-12-14T20:53:53.030Z,27.70
2022-12-14T20:58:57.195Z,32.20
2022-12-14T21:04:01.662Z,48.10
2022-12-14T21:09:11.880Z,43.70
2022-12-14T21:14:15.775Z,101.80
2022-12-14T21:19:19.567Z,43.80
2022-12-14T21:24:53.149Z,33.80
2022-12-14T21:34:54.617Z,53.70
2022-12-14T21:39:57.463Z,59.10
2022-12-14T21:45:00.430Z,30.60
2022-12-14T21:50:04.045Z,25.50
2022-12-14T21:55:07.221Z,25.80
2022-12-14T22:00:14.233Z,32.60
2022-12-14T22:05:17.171Z,35.70
2022-12-14T22:10:24.604Z,38.70
2022-12-14T22:15:28.296Z,32.70
2022-12-14T22:20:31.090Z,30.10
2022-12-14T22:25:34.280Z,30.50
2022-12-14T22:30:38.547Z,28.10
2022-12-14T22:35:41.450Z,25.60
2022-12-14T22:40:44.281Z,21.90
2022-12-14T22:45:47.168Z,21.40
2022-12-14T22:50:50.147Z,25.80
2022-12-14T22:56:00.951Z,26.90
2022-12-14T23:01:03.949Z,19.70
2022-12-14T23:06:15.927Z,20.00
2022-12-14T23:11:37.542Z,19.40
2022-12-14T23:16:58.964Z,42.60
2022-12-14T23:22:20.496Z,21.20
2022-12-14T23:27:42.557Z,22.30
2022-12-14T23:33:04.036Z,21.30
2022-12-14T23:38:27.487Z,20.30
2022-12-14T23:43:49.004Z,20.10
2022-12-14T23:49:15.645Z,19.90
2022-12-14T23:54:38.093Z,23.20
2022-12-14T23:59:59.912Z,22.30
